Schelle, Belgium
Current Conditions -  °F | °C
As of 1:20 PM on Saturday 25 Oct 2014 (Local Time) from EBAW Reporting Station
Haze Haze  
Wind Chill: 55°   Ceiling: 400
Heat Index: 55°   Visibility: 1.5mi
Dew Point: 54°   Wind: 7mph
Humidity: 94%   Direction: 250°WSW
Pressure: 30.09"   Gusts: NA
Location:  51.13°N, 4.34°E
Report Text: EBAW 251120Z 25006KT 220V280 2500 BR BKN004 13/12 Q1019 BECMG 6000 NSW
Loading
Personal Weather Stations






























Interactive Weather Map
Tropical Storm Tracking
New forecast layout! Learn more

10-Day Weather Forecast

Advertisements
Track Severe Weather on mobile